createdAt,value
2023-04-07T05:05:02.035Z,3.9
2023-04-07T05:15:01.509Z,4.8
2023-04-07T05:20:01.315Z,4.2
2023-04-07T05:25:06.805Z,4.5
2023-04-07T05:40:01.414Z,2.4
2023-04-07T05:45:01.568Z,2.4
2023-04-07T05:50:01.595Z,2.1
2023-04-07T06:00:01.476Z,2.1
2023-04-07T06:15:06.747Z,2.5
2023-04-07T06:30:01.350Z,2.9
2023-04-07T09:05:01.516Z,4.2
2023-04-07T09:15:01.296Z,7.6
2023-04-07T09:20:01.242Z,7.8
2023-04-07T09:25:01.402Z,8.2
2023-04-07T09:30:01.271Z,4.6
2023-04-07T09:50:01.781Z,24.6
2023-04-07T09:55:01.871Z,19.3
2023-04-07T10:00:01.714Z,17.3
2023-04-07T10:05:01.725Z,19.1
2023-04-07T10:10:01.729Z,29.8
2023-04-07T10:20:02.701Z,32.4
2023-04-07T10:25:01.730Z,38.4
2023-04-07T10:30:01.834Z,42.4
2023-04-07T10:35:01.719Z,44.4
2023-04-07T10:40:01.629Z,45.6
2023-04-07T12:55:04.814Z,28.8
2023-04-07T13:05:01.532Z,50.4
2023-04-07T13:10:01.329Z,45.8
2023-04-07T13:20:01.252Z,45.4
2023-04-07T13:40:01.304Z,26.8
2023-04-07T13:50:06.332Z,26.4
2023-04-07T14:00:01.348Z,29.4
2023-04-07T14:05:01.911Z,27.7
2023-04-07T14:10:02.544Z,21.8
2023-04-07T14:15:01.619Z,13.4
2023-04-07T14:40:04.034Z,8.9
2023-04-07T14:45:01.336Z,8.9
2023-04-07T14:50:06.316Z,7.8
2023-04-07T14:55:06.522Z,7.6
2023-04-07T15:00:01.516Z,4.0
2023-04-07T15:20:02.476Z,3.6
2023-04-07T15:25:01.531Z,9.7
2023-04-07T15:30:01.489Z,10.2
2023-04-07T15:35:01.483Z,10.6
2023-04-07T15:40:01.434Z,10.4
2023-04-07T15:45:01.426Z,10.6
2023-04-07T15:50:01.511Z,8.0
2023-04-07T15:55:01.394Z,9.4
2023-04-07T16:00:01.386Z,8.4
2023-04-07T16:05:01.510Z,12.1
2023-04-07T16:10:01.286Z,20.7
2023-04-07T16:15:01.484Z,29.6
2023-04-07T16:20:02.088Z,36.8
2023-04-07T16:25:01.589Z,48.2
2023-04-07T16:30:01.394Z,54.0
2023-04-07T16:35:01.478Z,50.9
2023-04-07T16:40:01.573Z,46.8
2023-04-07T16:45:02.342Z,45.3
2023-04-07T16:50:01.801Z,42.6
2023-04-07T17:05:01.581Z,34.6
2023-04-07T17:15:01.728Z,30.5
2023-04-07T17:20:02.123Z,35.0
2023-04-07T17:25:06.576Z,38.1
2023-04-07T17:30:06.710Z,43.3
2023-04-07T17:35:01.418Z,47.6
2023-04-07T17:40:01.395Z,52.4
2023-04-07T17:50:07.971Z,41.4
2023-04-07T17:55:07.185Z,39.6
2023-04-07T18:00:07.452Z,39.3
2023-04-07T18:05:02.537Z,39.0
2023-04-07T18:10:02.347Z,47.7
2023-04-07T18:25:01.457Z,40.4
2023-04-07T18:30:01.331Z,43.6
2023-04-07T18:35:01.483Z,37.9
2023-04-07T18:40:06.405Z,45.5
2023-04-07T18:55:02.444Z,46.4
2023-04-07T19:00:02.383Z,51.7
2023-04-07T19:05:02.385Z,44.4
2023-04-07T19:10:01.336Z,38.3
2023-04-07T19:20:01.363Z,23.2
2023-04-07T19:25:01.478Z,18.0
2023-04-07T19:35:01.447Z,17.4
2023-04-07T19:40:04.065Z,15.0
2023-04-07T19:45:01.467Z,21.5
2023-04-07T19:50:01.387Z,24.4
2023-04-07T19:55:01.798Z,27.2
2023-04-07T20:00:01.330Z,25.9
2023-04-07T20:05:02.024Z,33.6
2023-04-07T20:10:01.471Z,32.2
2023-04-07T20:15:01.458Z,33.4
2023-04-07T20:20:01.431Z,35.5
2023-04-07T20:25:01.609Z,29.0
2023-04-07T20:35:01.615Z,22.6
2023-04-07T20:40:01.846Z,22.2
2023-04-07T20:45:01.793Z,21.9
2023-04-07T20:50:01.391Z,27.4
2023-04-07T20:55:01.740Z,30.2
2023-04-07T21:05:01.497Z,24.6
2023-04-07T21:10:01.519Z,22.3
2023-04-07T21:25:01.507Z,21.1
2023-04-07T21:30:06.454Z,22.9
2023-04-07T21:35:02.564Z,26.4
2023-04-07T21:40:06.456Z,30.5
2023-04-07T21:45:06.719Z,34.6
2023-04-07T21:50:01.487Z,33.1
2023-04-07T21:55:01.656Z,33.1
2023-04-07T22:00:01.662Z,30.8
2023-04-07T22:05:01.509Z,27.6
2023-04-07T22:10:01.415Z,23.5
2023-04-07T22:15:01.507Z,20.8
2023-04-07T22:25:01.496Z,13.4
2023-04-07T22:30:01.444Z,11.2
2023-04-07T22:35:01.478Z,11.8
2023-04-07T22:40:01.477Z,9.2
2023-04-07T22:45:01.270Z,9.4
2023-04-07T22:50:01.300Z,10.5
2023-04-07T22:55:01.463Z,17.2
2023-04-07T23:00:01.407Z,22.3
2023-04-07T23:05:06.448Z,23.2
2023-04-07T23:10:06.324Z,28.5
2023-04-07T23:20:01.426Z,34.5
2023-04-07T23:25:01.643Z,31.8
2023-04-07T23:35:01.646Z,29.4
2023-04-07T23:40:01.418Z,25.3
2023-04-07T23:45:01.570Z,20.0
2023-04-07T23:50:02.464Z,17.2
2023-04-07T23:55:01.589Z,14.3
